Time;durP1;ratioP1;P1;durP2;ratioP2;P2;SDS_P1;SDS_P2;PMS_P1;PMS_P2;Temp;Humidity;BMP_temperature;BMP_pressure;BME280_temperature;BME280_humidity;BME280_pressure;Samples;Min_cycle;Max_cycle;Signal;HPM_P1;HPM_P2
2022/04/27 00:00:49;;;;;;;5.78;3.10;;;;;;;18.56;100.00;100984.94;4983464;28;20113;-75
2022/04/27 00:03:35;;;;;;;6.18;3.05;;;;;;;18.46;100.00;100979.22;4983050;28;20474;-76
2022/04/27 00:06:20;;;;;;;5.07;3.20;;;;;;;18.48;100.00;100980.00;4997518;28;20109;-76
2022/04/27 00:09:06;;;;;;;6.07;3.13;;;;;;;18.06;100.00;100987.19;4997212;28;20022;-75
2022/04/27 00:11:55;;;;;;;6.63;3.20;;;;;;;18.19;100.00;100985.72;4996768;28;20108;-76
2022/04/27 00:14:41;;;;;;;8.63;3.15;;;;;;;18.33;100.00;100987.75;4995461;28;20030;-75
2022/04/27 00:17:26;;;;;;;8.50;3.50;;;;;;;18.54;100.00;100984.16;4997495;28;20043;-75
2022/04/27 00:20:12;;;;;;;5.97;3.17;;;;;;;18.61;100.00;100978.50;4997063;28;20034;-76
2022/04/27 00:22:58;;;;;;;8.45;3.47;;;;;;;18.46;100.00;100987.19;4997369;28;20030;-76
2022/04/27 00:25:44;;;;;;;5.88;3.33;;;;;;;18.37;100.00;100992.88;4996996;28;20486;-75
2022/04/27 00:28:30;;;;;;;6.30;3.45;;;;;;;18.44;100.00;100985.50;4995709;28;20034;-76
2022/04/27 00:31:16;;;;;;;6.32;3.70;;;;;;;18.46;100.00;100981.88;4996808;28;20026;-75
2022/04/27 00:34:02;;;;;;;11.70;3.50;;;;;;;18.03;100.00;100976.72;4982510;28;20034;-76
2022/04/27 00:36:48;;;;;;;12.50;3.40;;;;;;;17.93;100.00;100995.75;4995704;28;20065;-75
2022/04/27 00:39:34;;;;;;;9.48;3.47;;;;;;;18.22;100.00;100985.59;4996018;28;20037;-75
2022/04/27 00:42:24;;;;;;;7.68;3.20;;;;;;;18.22;100.00;100975.00;4995331;28;20088;-75
2022/04/27 00:45:10;;;;;;;6.80;2.85;;;;;;;17.94;100.00;100971.81;4994943;28;20033;-75
2022/04/27 00:47:56;;;;;;;4.50;3.00;;;;;;;17.79;100.00;100983.06;4994991;28;20027;-75
2022/04/27 00:50:42;;;;;;;4.28;3.05;;;;;;;17.90;100.00;100982.63;4996689;28;20430;-75
2022/04/27 00:53:28;;;;;;;5.35;3.10;;;;;;;18.22;100.00;100979.41;4996881;28;20104;-75
2022/04/27 00:56:15;;;;;;;4.88;3.05;;;;;;;17.87;100.00;100983.63;4996230;28;20454;-75
2022/04/27 00:59:01;;;;;;;4.40;2.50;;;;;;;17.55;100.00;100983.22;4995310;28;20389;-75
2022/04/27 01:01:47;;;;;;;5.13;2.67;;;;;;;17.69;100.00;100976.44;4996209;28;20085;-75
2022/04/27 01:04:34;;;;;;;8.13;3.00;;;;;;;17.55;100.00;100967.34;4996446;28;20121;-75
2022/04/27 01:07:20;;;;;;;4.53;2.72;;;;;;;17.62;100.00;100966.16;4994419;28;20114;-75
2022/04/27 01:10:07;;;;;;;6.18;3.30;;;;;;;17.44;100.00;100964.31;4995020;28;20432;-76
2022/04/27 01:12:55;;;;;;;5.13;3.00;;;;;;;17.59;100.00;100968.94;4994841;28;20052;-76
2022/04/27 01:15:41;;;;;;;6.22;2.83;;;;;;;17.92;100.00;100962.22;4982355;28;20105;-76
2022/04/27 01:18:27;;;;;;;7.13;2.90;;;;;;;17.93;100.00;100963.94;4995913;28;20506;-76
2022/04/27 01:21:13;;;;;;;6.10;2.72;;;;;;;17.24;100.00;100962.41;4995902;28;20366;-75
2022/04/27 01:23:59;;;;;;;6.15;3.03;;;;;;;17.31;100.00;100963.91;4982288;28;20375;-75
2022/04/27 01:26:44;;;;;;;5.35;2.70;;;;;;;17.62;100.00;100961.75;4995947;28;20061;-76
2022/04/27 01:29:30;;;;;;;5.15;3.00;;;;;;;17.59;100.00;100964.50;4981780;28;20122;-75
2022/04/27 01:32:16;;;;;;;4.38;3.00;;;;;;;17.75;100.00;100959.41;4980913;28;20054;-76
2022/04/27 01:35:02;;;;;;;3.35;2.65;;;;;;;17.64;100.00;100962.53;4994413;28;20451;-76
2022/04/27 01:38:07;;;;;;;4.90;2.78;;;;;;;17.44;100.00;100965.16;4981803;28;20036;-76
2022/04/27 01:40:54;;;;;;;6.65;2.72;;;;;;;17.72;100.00;100965.72;4994720;28;20117;-75
2022/04/27 01:43:40;;;;;;;6.80;3.08;;;;;;;17.53;100.00;100969.22;4981030;28;20042;-76
2022/04/27 01:46:27;;;;;;;4.90;2.58;;;;;;;17.68;100.00;100960.63;4981918;28;20018;-75
2022/04/27 01:49:13;;;;;;;4.70;3.08;;;;;;;17.45;100.00;100958.06;4995995;28;20022;-75
2022/04/27 01:55:04;;;;;;;3.35;2.65;;;;;;;17.27;100.00;100961.44;4994111;28;20447;-75
2022/04/27 01:57:49;;;;;;;6.50;3.13;;;;;;;17.14;100.00;100966.38;4994863;28;20478;-75
2022/04/27 02:00:35;;;;;;;4.85;3.17;;;;;;;17.34;100.00;100965.56;4995589;28;20053;-75
2022/04/27 02:03:22;;;;;;;4.97;3.55;;;;;;;17.39;100.00;100975.03;4995231;28;20034;-75
2022/04/27 02:06:07;;;;;;;5.50;4.00;;;;;;;17.39;100.00;100966.22;4980660;28;20092;-74
2022/04/27 02:08:53;;;;;;;7.05;4.40;;;;;;;17.06;100.00;100964.94;4995474;28;20030;-76
2022/04/27 02:11:39;;;;;;;5.88;4.15;;;;;;;17.19;100.00;100966.16;4981911;28;20030;-77
2022/04/27 02:14:25;;;;;;;10.20;4.40;;;;;;;17.23;100.00;100970.41;4980918;28;20459;-76
2022/04/27 02:17:11;;;;;;;7.32;3.85;;;;;;;17.41;100.00;100973.22;4994639;28;20121;-76
2022/04/27 02:19:56;;;;;;;7.95;4.53;;;;;;;17.08;100.00;100965.75;4995324;28;20026;-76
2022/04/27 02:22:42;;;;;;;8.00;4.07;;;;;;;17.13;100.00;100969.09;4980634;28;20340;-77
2022/04/27 02:25:28;;;;;;;7.63;4.20;;;;;;;16.94;100.00;100979.53;4993367;28;20045;-75
2022/04/27 02:28:14;;;;;;;7.85;4.43;;;;;;;16.92;100.00;100984.00;4993629;28;20361;-76
2022/04/27 02:31:00;;;;;;;7.63;4.22;;;;;;;16.82;100.00;100984.44;4998741;28;20026;-76
2022/04/27 02:33:46;;;;;;;6.30;4.63;;;;;;;16.62;100.00;100997.56;4984571;28;20019;-76
2022/04/27 02:36:33;;;;;;;9.02;4.70;;;;;;;16.61;100.00;100990.56;4998670;28;20041;-76
2022/04/27 02:39:19;;;;;;;10.27;4.88;;;;;;;16.55;100.00;100991.63;4997018;28;20065;-76
2022/04/27 02:42:06;;;;;;;11.98;5.20;;;;;;;16.60;100.00;101002.06;4999137;28;20060;-76
2022/04/27 02:44:52;;;;;;;7.95;4.25;;;;;;;16.64;100.00;101003.69;4998881;28;20098;-76
2022/04/27 02:47:38;;;;;;;10.15;4.40;;;;;;;16.29;100.00;100994.38;4984896;28;20065;-77
2022/04/27 02:53:28;;;;;;;8.05;3.72;;;;;;;16.47;100.00;101000.81;4997461;28;20474;-75
2022/04/27 02:56:14;;;;;;;5.57;3.58;;;;;;;16.12;100.00;100994.09;4998761;28;20443;-76
2022/04/27 02:58:59;;;;;;;6.75;3.80;;;;;;;16.25;100.00;101003.31;4997455;28;20342;-76
2022/04/27 03:01:45;;;;;;;9.50;4.10;;;;;;;16.28;100.00;101007.63;4997177;28;20022;-75
2022/04/27 03:04:31;;;;;;;11.52;3.80;;;;;;;16.30;100.00;101011.06;4997433;28;20045;-76
2022/04/27 03:07:17;;;;;;;8.85;3.47;;;;;;;16.29;100.00;101004.06;4998667;28;20034;-75
2022/04/27 03:10:03;;;;;;;6.50;3.92;;;;;;;16.42;100.00;101005.38;4998492;28;20019;-75
2022/04/27 03:12:49;;;;;;;9.20;3.58;;;;;;;16.15;100.00;101014.28;4998619;28;20443;-76
2022/04/27 03:15:35;;;;;;;10.18;4.30;;;;;;;16.44;100.00;101035.28;4984443;28;20053;-75
2022/04/27 03:18:21;;;;;;;8.13;3.90;;;;;;;16.20;100.00;101041.41;4998289;28;20034;-75
2022/04/27 03:21:06;;;;;;;7.75;4.47;;;;;;;16.28;100.00;101040.22;4996547;28;20033;-76
2022/04/27 03:23:52;;;;;;;6.60;4.00;;;;;;;16.04;100.00;101042.88;4983515;28;20022;-75
2022/04/27 03:26:38;;;;;;;9.43;5.30;;;;;;;15.94;100.00;101049.38;4998200;28;20030;-74
2022/04/27 03:29:23;;;;;;;9.90;5.03;;;;;;;15.99;100.00;101066.81;4998543;28;20022;-75
2022/04/27 03:32:10;;;;;;;11.18;5.00;;;;;;;15.76;100.00;101066.72;4984255;28;20089;-75
2022/04/27 03:34:55;;;;;;;10.05;4.68;;;;;;;15.54;100.00;101064.81;4984943;28;20431;-76
2022/04/27 03:37:41;;;;;;;10.23;4.60;;;;;;;15.35;100.00;101090.09;4996804;28;20030;-75
2022/04/27 03:40:27;;;;;;;6.60;4.85;;;;;;;15.02;100.00;101070.81;4983588;28;20023;-76
2022/04/27 03:43:14;;;;;;;8.93;4.70;;;;;;;15.20;100.00;101067.63;4997980;28;20022;-77
2022/04/27 03:46:00;;;;;;;7.10;4.88;;;;;;;15.04;100.00;101068.13;4983167;28;20049;-76
2022/04/27 03:48:47;;;;;;;11.88;5.00;;;;;;;15.26;100.00;101088.56;4984410;28;20030;-76
2022/04/27 03:51:33;;;;;;;8.23;4.65;;;;;;;15.31;100.00;101076.06;4998652;28;20031;-76
2022/04/27 03:54:19;;;;;;;8.38;4.70;;;;;;;15.49;100.00;101082.59;4998307;28;20034;-76
2022/04/27 03:57:04;;;;;;;12.75;4.88;;;;;;;15.39;100.00;101089.09;4997599;28;20088;-77
2022/04/27 03:59:50;;;;;;;8.95;4.90;;;;;;;15.67;100.00;101093.41;4983839;28;20026;-76
2022/04/27 04:02:37;;;;;;;9.85;4.60;;;;;;;15.68;100.00;101096.94;4997461;28;20045;-76
2022/04/27 04:05:22;;;;;;;14.25;4.63;;;;;;;15.46;100.00;101102.03;4996676;28;20367;-76
2022/04/27 04:08:08;;;;;;;10.00;6.18;;;;;;;15.69;100.00;101102.19;4997286;28;20030;-77
2022/04/27 04:10:54;;;;;;;5.28;4.07;;;;;;;15.81;100.00;101095.63;4997583;28;20051;-76
2022/04/27 04:13:40;;;;;;;12.50;4.45;;;;;;;15.72;100.00;101096.81;4997783;28;20045;-77
2022/04/27 04:16:26;;;;;;;6.70;4.03;;;;;;;15.66;100.00;101106.69;4996228;28;20030;-76
2022/04/27 04:19:11;;;;;;;11.63;4.32;;;;;;;15.92;100.00;101109.34;5002007;28;20034;-76
2022/04/27 04:21:57;;;;;;;12.02;4.30;;;;;;;16.20;100.00;101112.81;4982970;28;20421;-76
2022/04/27 04:30:51;;;;;;;8.77;4.03;;;;;;;16.32;100.00;101115.03;4997091;28;20026;-76
2022/04/27 04:33:38;;;;;;;8.90;4.15;;;;;;;16.55;100.00;101121.25;4997770;28;20152;-76
2022/04/27 04:36:24;;;;;;;8.25;4.28;;;;;;;16.33;100.00;101122.91;4995486;28;20081;-76
2022/04/27 04:39:10;;;;;;;9.85;4.68;;;;;;;16.32;100.00;101120.31;4982072;28;20038;-75
2022/04/27 04:41:56;;;;;;;7.00;4.25;;;;;;;16.43;100.00;101124.34;5003540;28;20038;-75
2022/04/27 04:44:41;;;;;;;11.75;4.95;;;;;;;16.29;100.00;101123.94;5001695;28;20030;-75
2022/04/27 04:47:27;;;;;;;13.43;5.35;;;;;;;16.46;100.00;101118.06;4997391;28;20033;-76
2022/04/27 04:50:13;;;;;;;8.65;4.90;;;;;;;16.50;100.00;101125.84;5000097;28;20022;-75
2022/04/27 04:52:59;;;;;;;10.25;5.05;;;;;;;16.70;100.00;101125.13;5005522;28;20031;-76
2022/04/27 04:55:44;;;;;;;11.45;5.20;;;;;;;16.50;100.00;101124.97;5006517;28;20018;-75
2022/04/27 04:58:30;;;;;;;11.18;4.97;;;;;;;16.40;100.00;101131.50;5002546;28;20026;-76
2022/04/27 05:01:16;;;;;;;8.82;5.35;;;;;;;16.42;100.00;101132.31;5000166;28;20443;-75
2022/04/27 05:04:02;;;;;;;10.38;5.30;;;;;;;16.67;100.00;101131.41;4998365;28;20090;-76
2022/04/27 05:06:47;;;;;;;9.23;5.50;;;;;;;17.00;100.00;101127.53;5006290;28;20069;-75
2022/04/27 05:09:33;;;;;;;13.23;5.38;;;;;;;16.95;100.00;101129.50;5009613;28;20026;-75
2022/04/27 05:12:19;;;;;;;14.98;5.90;;;;;;;16.96;100.00;101130.38;5007949;28;20022;-75
2022/04/27 05:15:14;;;;;;;7.57;5.45;;;;;;;17.02;100.00;101131.00;5160105;27;20132;-75
2022/04/27 05:18:00;;;;;;;13.40;6.50;;;;;;;16.72;100.00;101129.47;5145133;28;20043;-74
2022/04/27 05:20:46;;;;;;;11.23;6.00;;;;;;;17.04;100.00;101133.59;5143470;28;20085;-76
2022/04/27 05:23:31;;;;;;;15.82;6.10;;;;;;;17.09;100.00;101134.28;5145256;28;20016;-78
2022/04/27 05:26:17;;;;;;;16.27;6.60;;;;;;;17.30;100.00;101128.16;5144444;28;20020;-77
2022/04/27 05:32:08;;;;;;;12.32;5.53;;;;;;;17.30;100.00;101136.09;5143844;28;20038;-74
2022/04/27 05:34:54;;;;;;;9.48;5.72;;;;;;;17.32;100.00;101135.13;5142472;28;20031;-75
2022/04/27 05:37:40;;;;;;;15.52;5.90;;;;;;;17.47;100.00;101144.28;5141650;28;20051;-76
2022/04/27 05:40:26;;;;;;;11.80;5.55;;;;;;;16.97;100.00;101142.69;5142733;27;20063;-75
2022/04/27 05:43:12;;;;;;;10.10;4.97;;;;;;;17.16;100.00;101143.72;5161350;27;20072;-75
2022/04/27 05:45:58;;;;;;;7.93;5.47;;;;;;;17.02;100.00;101140.72;5158138;27;20109;-76
2022/04/27 05:48:45;;;;;;;10.68;4.90;;;;;;;17.24;100.00;101145.16;5153365;27;20026;-75
2022/04/27 05:51:31;;;;;;;8.80;4.95;;;;;;;17.19;100.00;101146.22;5152542;27;20022;-77
2022/04/27 05:54:17;;;;;;;11.73;5.85;;;;;;;17.61;100.00;101147.28;5152830;27;20435;-75
2022/04/27 05:57:03;;;;;;;11.23;5.75;;;;;;;18.26;100.00;101142.81;5123238;27;20379;-76
2022/04/27 05:59:48;;;;;;;12.10;6.50;;;;;;;18.37;100.00;101151.22;5152546;27;20367;-75
2022/04/27 06:02:34;;;;;;;17.20;6.70;;;;;;;18.11;100.00;101151.41;5152425;27;20027;-76
2022/04/27 06:05:20;;;;;;;12.68;6.85;;;;;;;18.03;100.00;101157.03;5151989;27;20035;-77
2022/04/27 06:08:06;;;;;;;11.00;6.28;;;;;;;18.26;100.00;101156.06;5155393;27;20019;-76
2022/04/27 06:10:52;;;;;;;16.98;7.05;;;;;;;18.45;100.00;101165.88;5157975;27;20023;-77
2022/04/27 06:13:38;;;;;;;14.60;6.72;;;;;;;18.35;100.00;101153.94;5160502;27;20043;-75
2022/04/27 06:16:24;;;;;;;8.68;6.28;;;;;;;18.49;100.00;101163.97;5131963;27;20018;-76
2022/04/27 06:19:11;;;;;;;12.55;6.45;;;;;;;18.51;100.00;101162.97;5160472;27;20019;-75
2022/04/27 06:21:57;;;;;;;12.43;6.43;;;;;;;18.59;100.00;101166.16;5156343;27;20027;-77
2022/04/27 06:24:43;;;;;;;13.55;6.90;;;;;;;18.22;100.00;101171.28;5152619;27;20052;-76
2022/04/27 06:27:29;;;;;;;13.70;7.88;;;;;;;17.66;100.00;101167.38;5143722;27;20099;-75
2022/04/27 06:30:15;;;;;;;15.57;8.20;;;;;;;18.34;100.00;101167.25;5141867;27;20031;-76
2022/04/27 06:33:02;;;;;;;9.10;5.97;;;;;;;18.41;100.00;101166.09;5139648;27;20031;-75
2022/04/27 06:35:48;;;;;;;14.75;7.32;;;;;;;18.79;100.00;101170.59;5134044;27;20023;-76
2022/04/27 06:38:33;;;;;;;13.23;7.32;;;;;;;19.01;100.00;101180.19;5147152;27;20019;-75
2022/04/27 06:41:19;;;;;;;10.38;6.47;;;;;;;19.37;100.00;101172.38;5143458;27;20436;-76
2022/04/27 06:44:06;;;;;;;10.38;5.80;;;;;;;19.19;100.00;101175.84;5145312;27;20023;-76
2022/04/27 06:46:51;;;;;;;13.27;6.97;;;;;;;19.50;100.00;101184.19;5147112;27;20079;-75
2022/04/27 06:49:37;;;;;;;10.68;6.72;;;;;;;19.50;100.00;101183.31;5145444;27;20027;-76
2022/04/27 06:52:23;;;;;;;9.75;5.97;;;;;;;19.46;100.00;101184.38;5140011;27;20355;-76
2022/04/27 06:55:11;;;;;;;9.93;6.28;;;;;;;19.12;100.00;101188.56;5141526;27;20027;-76
2022/04/27 06:57:57;;;;;;;12.13;6.00;;;;;;;19.65;100.00;101194.06;5129656;27;20038;-75
2022/04/27 07:00:43;;;;;;;8.43;5.38;;;;;;;19.53;100.00;101194.66;5124991;27;20038;-75
2022/04/27 07:03:31;;;;;;;11.77;5.68;;;;;;;19.75;100.00;101189.19;5125010;27;20519;-75
2022/04/27 07:06:17;;;;;;;9.02;5.40;;;;;;;19.94;100.00;101193.56;5125130;27;20027;-76
2022/04/27 07:09:04;;;;;;;10.98;6.40;;;;;;;20.30;100.00;101191.81;5126628;27;20106;-74
2022/04/27 07:11:50;;;;;;;15.60;5.88;;;;;;;20.67;100.00;101202.31;5142613;27;20037;-75
2022/04/27 07:14:36;;;;;;;11.25;5.72;;;;;;;20.17;100.00;101209.28;5138130;27;20047;-76
2022/04/27 07:17:22;;;;;;;15.30;5.82;;;;;;;20.20;100.00;101202.94;5138148;27;20173;-78
2022/04/27 07:20:08;;;;;;;6.78;5.13;;;;;;;20.75;100.00;101208.13;5137267;27;20053;-76
2022/04/27 07:22:56;;;;;;;13.98;6.78;;;;;;;20.64;100.00;101201.59;5137809;27;20031;-76
2022/04/27 07:25:43;;;;;;;12.85;6.85;;;;;;;21.01;100.00;101212.97;5139715;27;20044;-76
2022/04/27 07:28:29;;;;;;;12.80;8.23;;;;;;;20.94;100.00;101216.88;5123732;27;20027;-76
2022/04/27 07:31:15;;;;;;;9.80;6.93;;;;;;;20.74;100.00;101208.19;5138313;27;20038;-76
2022/04/27 07:34:03;;;;;;;11.18;5.50;;;;;;;21.09;100.00;101205.44;5137446;27;20520;-79
2022/04/27 07:36:49;;;;;;;11.48;5.80;;;;;;;21.18;100.00;101212.94;5124136;27;20426;-76
2022/04/27 07:39:35;;;;;;;10.18;5.53;;;;;;;20.49;100.00;101213.88;5123726;27;20322;-76
2022/04/27 07:42:21;;;;;;;8.73;5.70;;;;;;;20.96;100.00;101209.69;5137032;27;20114;-76
2022/04/27 07:45:07;;;;;;;8.85;7.55;;;;;;;21.39;100.00;101206.47;5136395;27;20118;-77
2022/04/27 07:47:54;;;;;;;10.27;5.50;;;;;;;21.56;100.00;101208.22;5136484;27;20034;-76
2022/04/27 07:50:40;;;;;;;10.20;5.30;;;;;;;22.15;100.00;101213.78;5135556;27;20041;-76
2022/04/27 07:53:27;;;;;;;9.63;5.28;;;;;;;22.24;100.00;101203.44;5121186;27;20023;-76
2022/04/27 07:56:12;;;;;;;13.05;5.20;;;;;;;22.20;100.00;101201.00;5121963;27;20031;-77
2022/04/27 07:58:58;;;;;;;11.60;5.45;;;;;;;22.06;100.00;101209.81;5135596;27;20466;-78
2022/04/27 08:01:44;;;;;;;8.02;4.75;;;;;;;22.49;100.00;101195.72;5136355;27;20062;-78
2022/04/27 08:04:30;;;;;;;8.75;5.00;;;;;;;22.75;100.00;101199.53;5135774;27;20027;-75
2022/04/27 08:07:16;;;;;;;8.80;6.63;;;;;;;22.89;99.49;101195.06;5120102;27;20027;-76
2022/04/27 08:10:16;;;;;;;10.30;5.03;;;;;;;23.47;97.05;101200.41;5135746;27;20030;-77
2022/04/27 08:13:02;;;;;;;7.82;4.32;;;;;;;23.65;93.92;101201.03;5121658;27;20031;-76
2022/04/27 08:15:48;;;;;;;14.75;6.97;;;;;;;23.75;93.64;101194.97;5120671;27;20064;-77
2022/04/27 08:18:37;;;;;;;9.73;5.22;;;;;;;22.99;94.94;101188.22;5135661;27;20027;-76
2022/04/27 08:21:27;;;;;;;9.05;4.63;;;;;;;23.51;96.69;101177.84;5135262;27;20431;-78
2022/04/27 08:24:16;;;;;;;9.43;4.55;;;;;;;23.73;91.40;101182.66;5121548;27;20116;-76
2022/04/27 08:27:02;;;;;;;10.77;7.75;;;;;;;24.03;87.91;101180.72;5121131;27;20443;-77
2022/04/27 08:29:48;;;;;;;8.85;4.68;;;;;;;23.97;87.29;101184.66;5136028;27;20374;-77
2022/04/27 08:32:34;;;;;;;32.97;5.53;;;;;;;24.07;90.22;101177.72;5134341;27;20022;-77
2022/04/27 08:35:19;;;;;;;13.25;5.90;;;;;;;24.28;88.22;101181.69;5135268;27;20019;-77
2022/04/27 08:38:09;;;;;;;10.48;5.35;;;;;;;24.25;86.10;101176.53;5135051;27;20019;-79
2022/04/27 08:40:55;;;;;;;21.27;15.70;;;;;;;24.12;89.65;101177.44;5124229;27;20540;-76
2022/04/27 08:43:41;;;;;;;8.13;4.43;;;;;;;24.74;83.79;101176.78;5136671;27;20054;-76
2022/04/27 08:46:28;;;;;;;7.18;4.35;;;;;;;24.85;84.26;101172.41;5121589;27;20023;-76
2022/04/27 08:49:15;;;;;;;9.52;4.40;;;;;;;24.68;85.66;101163.81;5134305;27;20062;-77
2022/04/27 08:52:01;;;;;;;12.93;4.53;;;;;;;25.20;82.83;101172.63;5134205;27;20023;-77
2022/04/27 08:54:48;;;;;;;7.45;4.57;;;;;;;25.36;78.91;101167.91;5134481;27;20087;-77
2022/04/27 08:57:34;;;;;;;8.27;4.25;;;;;;;25.00;82.69;101165.97;5134419;27;20042;-76
2022/04/27 09:00:22;;;;;;;13.00;6.53;;;;;;;24.93;79.51;101170.06;5121804;27;20343;-77
2022/04/27 09:03:24;;;;;;;7.95;5.13;;;;;;;25.12;80.34;101165.09;5133881;27;20073;-77
2022/04/27 09:06:12;;;;;;;7.57;4.00;;;;;;;25.12;80.94;101149.00;5134225;27;20023;-77
2022/04/27 09:08:58;;;;;;;10.60;5.10;;;;;;;25.42;79.31;101152.25;5134639;27;20027;-77
2022/04/27 09:11:51;;;;;;;9.60;4.43;;;;;;;25.45;78.65;101151.16;5134378;27;20050;-77
2022/04/27 09:14:38;;;;;;;7.10;4.03;;;;;;;25.14;78.94;101143.53;5133495;28;20043;-76
2022/04/27 09:20:47;;;;;;;8.00;3.78;;;;;;;25.16;81.42;101138.94;5135137;28;20069;-77
2022/04/27 09:23:38;;;;;;;7.40;3.60;;;;;;;25.11;81.20;101143.78;5135111;28;20126;-77
2022/04/27 09:26:27;;;;;;;10.32;4.00;;;;;;;25.51;79.19;101135.47;5134133;28;20031;-77
2022/04/27 09:29:23;;;;;;;8.43;4.00;;;;;;;25.29;82.35;101129.06;5134171;28;20042;-77
2022/04/27 09:32:16;;;;;;;9.30;3.88;;;;;;;24.99;83.50;101128.56;5121189;28;20020;-76
2022/04/27 09:35:14;;;;;;;8.60;5.82;;;;;;;25.32;83.04;101136.91;5134127;28;20023;-77
2022/04/27 09:38:22;;;;;;;12.32;9.13;;;;;;;25.39;83.50;101130.16;5134071;28;20027;-75
2022/04/27 09:41:07;;;;;;;14.40;5.70;;;;;;;25.23;84.28;101122.28;5134466;28;20050;-77
2022/04/27 09:43:53;;;;;;;9.15;3.95;;;;;;;25.09;84.14;101124.25;5120800;28;20110;-77
2022/04/27 09:46:40;;;;;;;17.60;7.57;;;;;;;25.20;86.13;101118.97;5134790;28;20446;-77
2022/04/27 09:49:28;;;;;;;7.43;3.88;;;;;;;25.06;87.11;101116.41;5134008;28;20031;-77
2022/04/27 09:52:15;;;;;;;8.13;3.88;;;;;;;25.22;83.75;101117.03;5134002;28;20452;-75
2022/04/27 09:55:02;;;;;;;5.78;3.72;;;;;;;24.97;85.08;101104.53;5121314;28;20051;-78
2022/04/27 09:57:54;;;;;;;4.80;3.35;;;;;;;25.20;86.71;101111.78;5134339;28;20352;-78
2022/04/27 10:00:44;;;;;;;7.90;3.65;;;;;;;25.18;84.14;101104.81;5136961;27;20031;-78
2022/04/27 10:03:35;;;;;;;30.48;4.95;;;;;;;24.91;88.31;101107.63;5137587;27;20029;-78
2022/04/27 10:06:21;;;;;;;7.93;3.63;;;;;;;25.36;86.79;101103.53;5139201;27;20106;-76
2022/04/27 10:09:06;;;;;;;4.32;3.35;;;;;;;25.50;84.23;101104.25;5137210;27;20033;-76
2022/04/27 10:11:54;;;;;;;7.28;3.80;;;;;;;25.31;85.76;101100.31;5123890;27;20031;-76
2022/04/27 10:14:41;;;;;;;10.95;3.60;;;;;;;25.49;83.46;101093.63;5136661;27;20061;-75
2022/04/27 10:17:28;;;;;;;10.23;3.50;;;;;;;25.75;81.89;101089.84;5124100;27;20023;-76
2022/04/27 10:20:34;;;;;;;14.00;3.78;;;;;;;25.89;79.89;101081.66;5124503;27;20455;-76
2022/04/27 10:23:49;;;;;;;7.07;3.45;;;;;;;25.80;76.35;101079.66;5137723;27;20023;-76
2022/04/27 10:26:35;;;;;;;10.30;3.60;;;;;;;25.78;77.07;101076.22;5119609;27;20030;-76
2022/04/27 10:29:20;;;;;;;6.22;2.88;;;;;;;25.36;77.48;101082.91;5137414;27;20355;-77
2022/04/27 10:32:06;;;;;;;7.75;3.42;;;;;;;25.62;76.78;101083.69;5137258;27;20420;-76
2022/04/27 10:35:29;;;;;;;6.28;3.20;;;;;;;26.24;69.43;101074.50;5124392;27;20458;-77
2022/04/27 10:38:23;;;;;;;5.13;3.03;;;;;;;26.63;63.34;101072.28;5137341;27;20022;-77
2022/04/27 10:41:09;;;;;;;3.65;2.28;;;;;;;26.08;61.68;101072.09;5123996;27;20042;-78
2022/04/27 10:43:55;;;;;;;8.20;6.13;;;;;;;25.60;64.09;101061.47;5137444;27;20102;-77
2022/04/27 10:46:43;;;;;;;6.85;4.70;;;;;;;25.14;63.48;101071.13;5137531;27;20031;-77
2022/04/27 10:49:29;;;;;;;9.55;5.13;;;;;;;25.27;58.70;101063.94;5122033;27;20019;-77
2022/04/27 10:52:15;;;;;;;5.85;2.80;;;;;;;26.04;54.66;101059.88;5123102;27;20030;-78
2022/04/27 10:55:03;;;;;;;5.47;2.38;;;;;;;26.09;49.72;101046.13;5137574;27;20027;-78
2022/04/27 10:57:49;;;;;;;4.20;2.00;;;;;;;25.82;47.28;101048.16;5121860;27;20051;-77
2022/04/27 11:00:35;;;;;;;5.43;1.95;;;;;;;25.96;46.15;101053.41;5123404;27;20019;-78
2022/04/27 11:03:21;;;;;;;7.25;2.10;;;;;;;26.15;44.69;101049.19;5137519;27;20019;-78
2022/04/27 11:06:12;;;;;;;5.38;1.95;;;;;;;26.04;46.04;101051.00;5124324;27;20110;-79
2022/04/27 11:09:29;;;;;;;8.32;2.75;;;;;;;26.93;43.73;101044.81;5138017;27;20092;-78
2022/04/27 11:12:15;;;;;;;7.60;1.67;;;;;;;27.33;40.14;101038.81;5139011;27;20359;-78
2022/04/27 11:15:06;;;;;;;7.25;3.47;;;;;;;28.36;39.54;101039.03;5126913;27;20043;-79
2022/04/27 11:17:55;;;;;;;4.75;2.08;;;;;;;28.17;38.83;101041.59;5139943;27;20023;-78
2022/04/27 11:20:41;;;;;;;4.43;1.80;;;;;;;28.59;37.93;101039.75;5124445;27;20031;-78
2022/04/27 11:23:28;;;;;;;6.47;1.50;;;;;;;28.10;36.17;101031.47;5123753;27;20015;-78
2022/04/27 11:26:14;;;;;;;7.03;1.77;;;;;;;28.38;34.14;101033.50;5136939;27;20027;-77
2022/04/27 11:29:01;;;;;;;7.68;1.77;;;;;;;28.70;34.74;101028.91;5123696;27;20031;-76
2022/04/27 11:31:47;;;;;;;5.90;1.75;;;;;;;29.29;34.44;101029.88;5123585;27;20059;-76
2022/04/27 11:34:33;;;;;;;4.57;2.00;;;;;;;29.33;34.08;101023.22;5135976;27;20038;-76
2022/04/27 11:37:21;;;;;;;5.30;1.52;;;;;;;29.75;32.92;101016.59;5123175;27;20114;-76
2022/04/27 11:40:12;;;;;;;4.93;2.00;;;;;;;29.77;34.02;101020.88;5135920;27;20511;-77
2022/04/27 11:43:00;;;;;;;6.53;1.85;;;;;;;29.61;32.94;101017.88;5137281;27;20452;-76
2022/04/27 11:45:49;;;;;;;12.52;2.28;;;;;;;29.11;33.58;101016.19;5136168;27;20031;-75
2022/04/27 11:48:35;;;;;;;6.13;2.40;;;;;;;29.28;33.17;101003.84;5136404;27;20030;-76
2022/04/27 11:51:24;;;;;;;14.82;9.30;;;;;;;29.12;33.03;101020.56;5135857;27;20027;-77
2022/04/27 11:54:10;;;;;;;7.60;3.45;;;;;;;29.12;33.30;101012.47;5121362;27;20030;-77
2022/04/27 11:57:00;;;;;;;6.40;1.70;;;;;;;28.52;32.00;100998.16;5120791;27;20034;-77
2022/04/27 11:59:51;;;;;;;10.05;6.90;;;;;;;29.24;32.27;100989.78;5136138;27;20093;-76
2022/04/27 12:02:42;;;;;;;5.25;1.85;;;;;;;29.74;31.67;100996.00;5135468;27;20023;-77
2022/04/27 12:05:36;;;;;;;5.35;2.13;;;;;;;29.66;32.26;100999.38;5121994;27;20510;-78
2022/04/27 12:08:24;;;;;;;5.30;2.15;;;;;;;29.07;32.55;100986.91;5122655;27;20059;-78
2022/04/27 12:11:13;;;;;;;6.20;1.77;;;;;;;28.70;33.34;100991.13;5123903;27;20088;-76
2022/04/27 12:13:58;;;;;;;3.95;1.65;;;;;;;28.44;34.14;100979.09;5135194;27;20039;-76
2022/04/27 12:16:44;;;;;;;11.15;2.28;;;;;;;28.13;34.26;100983.56;5135187;27;20062;-77
2022/04/27 12:19:30;;;;;;;4.15;1.70;;;;;;;28.50;34.44;100983.94;5134947;27;20447;-77
2022/04/27 12:22:18;;;;;;;6.78;2.03;;;;;;;27.96;34.23;100984.13;5136057;27;20439;-82
2022/04/27 12:25:05;;;;;;;8.63;2.20;;;;;;;27.47;34.36;100973.06;5135344;27;20102;-77
2022/04/27 12:27:50;;;;;;;8.60;2.28;;;;;;;27.32;34.90;100977.88;5135188;27;20451;-78
2022/04/27 12:30:43;;;;;;;3.67;1.67;;;;;;;26.94;35.16;100973.91;5135659;27;20039;-77
2022/04/27 12:33:35;;;;;;;4.03;1.45;;;;;;;27.59;34.65;100963.97;5119760;27;20419;-77
2022/04/27 12:39:38;;;;;;;5.90;1.83;;;;;;;27.58;34.88;100973.88;5134909;27;20019;-77
2022/04/27 12:42:27;;;;;;;8.43;1.80;;;;;;;27.64;34.91;100966.28;5135323;27;20440;-76
2022/04/27 12:45:13;;;;;;;6.15;1.92;;;;;;;27.52;34.22;100967.31;5135541;27;20023;-77
2022/04/27 12:47:58;;;;;;;5.68;1.92;;;;;;;28.00;34.48;100968.59;5135058;27;20431;-76
2022/04/27 12:50:50;;;;;;;5.45;1.80;;;;;;;27.79;34.96;100970.34;5135385;27;20055;-75
2022/04/27 12:53:36;;;;;;;7.78;2.10;;;;;;;26.86;34.84;100963.78;5119664;27;20023;-77
2022/04/27 12:56:22;;;;;;;3.85;1.60;;;;;;;27.06;34.83;100954.94;5121571;27;20026;-77
2022/04/27 12:59:12;;;;;;;7.30;2.08;;;;;;;27.33;34.74;100957.22;5134299;27;20033;-76
2022/04/27 13:01:58;;;;;;;5.10;1.63;;;;;;;27.11;35.05;100951.84;5121304;27;20084;-76
2022/04/27 13:04:47;;;;;;;6.15;1.50;;;;;;;27.10;34.91;100942.09;5134268;27;20371;-77
2022/04/27 13:07:33;;;;;;;2.33;1.33;;;;;;;27.35;34.49;100942.66;5120196;28;20020;-80
2022/04/27 13:13:26;;;;;;;7.70;2.10;;;;;;;27.13;35.36;100941.84;5135012;28;20041;-78